createdAt,value
2023-05-14T00:00:30.346Z,12.88
2023-05-14T00:02:59.132Z,12.90
2023-05-14T00:05:27.560Z,12.86
2023-05-14T00:07:54.301Z,12.80
2023-05-14T00:10:20.858Z,12.81
2023-05-14T00:12:47.429Z,12.82
2023-05-14T00:15:15.937Z,12.86
2023-05-14T00:17:44.521Z,12.78
2023-05-14T00:20:13.374Z,12.75
2023-05-14T00:22:41.701Z,12.73
2023-05-14T00:25:10.305Z,12.77
2023-05-14T00:27:37.964Z,12.73
2023-05-14T00:30:05.477Z,12.75
2023-05-14T00:32:33.118Z,12.74
2023-05-14T00:35:00.670Z,12.75
2023-05-14T00:37:29.530Z,12.74
2023-05-14T00:39:57.862Z,12.68
2023-05-14T00:42:27.026Z,12.68
2023-05-14T00:44:54.020Z,12.76
2023-05-14T00:47:21.670Z,12.82
2023-05-14T00:49:48.302Z,12.87
2023-05-14T00:52:14.809Z,12.89
2023-05-14T00:54:43.424Z,12.92
2023-05-14T00:57:11.010Z,12.96
2023-05-14T00:59:38.597Z,12.93
2023-05-14T01:02:06.194Z,12.87
2023-05-14T01:04:33.072Z,12.79
2023-05-14T01:07:00.361Z,12.78
2023-05-14T01:09:27.025Z,12.76
2023-05-14T01:11:54.532Z,12.63
2023-05-14T01:14:23.252Z,12.56
2023-05-14T01:16:50.927Z,12.49
2023-05-14T01:19:18.349Z,12.49
2023-05-14T01:21:45.910Z,12.39
2023-05-14T01:24:15.030Z,12.41
2023-05-14T01:26:42.084Z,12.42
2023-05-14T01:29:08.683Z,12.44
2023-05-14T01:31:35.443Z,12.50
2023-05-14T01:34:03.001Z,12.47
2023-05-14T01:36:30.567Z,12.39
2023-05-14T01:38:58.180Z,12.43
2023-05-14T01:41:27.261Z,12.44
2023-05-14T01:43:55.347Z,12.48
2023-05-14T01:46:23.009Z,12.48
2023-05-14T01:48:51.549Z,12.45
2023-05-14T01:51:19.131Z,12.44
2023-05-14T01:53:47.743Z,12.41
2023-05-14T01:56:14.338Z,12.36
2023-05-14T01:58:42.911Z,12.35
2023-05-14T02:01:10.550Z,12.33
2023-05-14T02:03:38.144Z,12.31
2023-05-14T02:06:07.083Z,12.33
2023-05-14T02:08:35.336Z,12.32
2023-05-14T02:11:02.947Z,12.34
2023-05-14T02:13:31.527Z,12.33
2023-05-14T02:16:00.295Z,12.36
2023-05-14T02:18:27.779Z,12.42
2023-05-14T02:20:56.710Z,12.46
2023-05-14T02:23:34.080Z,12.49
2023-05-14T02:26:05.585Z,12.42
2023-05-14T02:28:33.150Z,12.41
2023-05-14T02:31:00.806Z,12.40
2023-05-14T02:33:28.387Z,12.41
2023-05-14T02:35:55.975Z,12.43
2023-05-14T02:38:23.570Z,12.46
2023-05-14T02:40:51.167Z,12.45
2023-05-14T02:43:18.725Z,12.38
2023-05-14T02:45:46.316Z,12.37
2023-05-14T02:48:13.957Z,12.37
2023-05-14T02:50:41.507Z,12.35
2023-05-14T02:53:10.100Z,12.31
2023-05-14T02:55:36.689Z,12.27
2023-05-14T02:58:03.259Z,12.29
2023-05-14T03:00:31.874Z,12.28
2023-05-14T03:03:00.495Z,12.30
2023-05-14T03:05:29.080Z,12.33
2023-05-14T03:07:56.664Z,12.30
2023-05-14T03:10:24.584Z,12.29
2023-05-14T03:12:51.834Z,12.29
2023-05-14T03:15:20.416Z,12.35
2023-05-14T03:17:47.033Z,12.44
2023-05-14T03:20:14.660Z,12.48
2023-05-14T03:22:43.214Z,12.54
2023-05-14T03:25:09.755Z,12.58
2023-05-14T03:27:36.187Z,12.59
2023-05-14T03:30:04.000Z,12.61
2023-05-14T03:32:31.602Z,12.60
2023-05-14T03:34:59.172Z,12.52
2023-05-14T03:37:27.759Z,12.38
2023-05-14T03:39:56.355Z,12.33
2023-05-14T03:42:24.956Z,12.35
2023-05-14T03:44:52.549Z,12.38
2023-05-14T03:47:20.162Z,12.40
2023-05-14T03:49:48.803Z,12.43
2023-05-14T03:52:15.402Z,12.46
2023-05-14T03:54:46.028Z,12.52
2023-05-14T03:57:14.776Z,12.54
2023-05-14T03:59:41.264Z,12.55
2023-05-14T04:02:10.045Z,12.55
2023-05-14T04:04:37.452Z,12.54
2023-05-14T04:07:04.985Z,12.49
2023-05-14T04:09:33.693Z,12.43
2023-05-14T04:12:02.179Z,12.41
2023-05-14T04:14:30.778Z,12.38
2023-05-14T04:17:00.167Z,12.38
2023-05-14T04:19:29.256Z,12.37
2023-05-14T04:21:57.554Z,12.37
2023-05-14T04:24:25.167Z,12.40
2023-05-14T04:26:53.755Z,12.46
2023-05-14T04:29:22.716Z,12.53
2023-05-14T04:31:50.958Z,12.56
2023-05-14T04:34:18.530Z,12.56
2023-05-14T04:36:47.157Z,12.58
2023-05-14T04:39:14.723Z,12.58
2023-05-14T04:41:43.306Z,12.58
2023-05-14T04:44:09.800Z,12.59
2023-05-14T04:46:36.511Z,12.62
2023-05-14T04:49:03.475Z,12.53
2023-05-14T04:51:29.970Z,12.48
2023-05-14T04:53:56.413Z,12.46
2023-05-14T04:56:24.832Z,12.48
2023-05-14T04:58:51.481Z,12.48
2023-05-14T05:01:20.029Z,12.53
2023-05-14T05:03:47.679Z,12.53
2023-05-14T05:06:16.217Z,12.55
2023-05-14T05:08:45.141Z,12.44
2023-05-14T05:11:13.429Z,12.48
2023-05-14T05:13:41.059Z,12.60
2023-05-14T05:16:07.728Z,12.67
2023-05-14T05:18:36.341Z,12.71
2023-05-14T05:21:03.899Z,12.75
2023-05-14T05:23:31.469Z,12.79
2023-05-14T05:25:59.070Z,12.84
2023-05-14T05:28:26.653Z,12.88
2023-05-14T05:30:55.247Z,12.92
2023-05-14T05:33:23.812Z,12.93
2023-05-14T05:35:51.446Z,12.96
2023-05-14T05:38:19.032Z,13.03
2023-05-14T05:40:46.612Z,13.08
2023-05-14T05:43:13.212Z,13.12
2023-05-14T05:45:39.803Z,13.18
2023-05-14T05:48:07.472Z,13.22
2023-05-14T05:50:33.963Z,13.27
2023-05-14T05:53:01.611Z,13.29
2023-05-14T05:55:28.462Z,13.22
2023-05-14T05:57:55.801Z,13.11
2023-05-14T06:00:25.218Z,13.19
2023-05-14T06:02:54.033Z,13.29
2023-05-14T06:05:22.988Z,13.39
2023-05-14T06:07:50.155Z,13.48
2023-05-14T06:10:18.761Z,13.57
2023-05-14T06:12:47.545Z,13.65
2023-05-14T06:15:15.151Z,13.70
2023-05-14T06:17:42.761Z,13.75
2023-05-14T06:20:11.331Z,13.79
2023-05-14T06:22:39.955Z,13.85
2023-05-14T06:25:07.546Z,13.91
2023-05-14T06:27:36.152Z,13.95
2023-05-14T06:30:03.007Z,13.97
2023-05-14T06:32:30.370Z,13.99
2023-05-14T06:34:57.915Z,14.03
2023-05-14T06:37:24.517Z,14.01
2023-05-14T06:39:51.125Z,14.04
2023-05-14T06:42:18.043Z,14.08
2023-05-14T06:44:45.292Z,14.08
2023-05-14T06:47:12.869Z,14.10
2023-05-14T06:49:40.467Z,14.13
2023-05-14T06:52:06.943Z,14.19
2023-05-14T06:54:33.441Z,14.27
2023-05-14T06:56:59.918Z,14.32
2023-05-14T06:59:26.401Z,14.38
2023-05-14T07:01:54.479Z,14.47
2023-05-14T07:04:22.057Z,14.58
2023-05-14T07:06:49.590Z,14.65
2023-05-14T07:09:17.215Z,14.73
2023-05-14T07:11:44.004Z,14.77
2023-05-14T07:14:10.484Z,14.88
2023-05-14T07:16:37.004Z,14.98
2023-05-14T07:19:03.592Z,15.02
2023-05-14T07:26:56.498Z,15.50
2023-05-14T07:32:31.227Z,15.86
2023-05-14T07:43:46.359Z,16.78
2023-05-14T07:45:50.037Z,17.01
2023-05-14T07:48:21.940Z,17.08
2023-05-14T07:50:51.215Z,17.16
2023-05-14T07:53:21.186Z,17.18
2023-05-14T07:55:49.431Z,17.34
2023-05-14T07:58:18.274Z,17.47
2023-05-14T08:00:47.653Z,17.52
2023-05-14T08:03:17.362Z,17.50
2023-05-14T08:05:45.843Z,17.51
2023-05-14T08:08:13.429Z,17.67
2023-05-14T08:10:41.063Z,17.55
2023-05-14T08:13:09.636Z,17.50
2023-05-14T08:15:38.200Z,17.50
2023-05-14T08:18:07.710Z,17.55
2023-05-14T08:20:34.442Z,17.63
2023-05-14T08:23:05.236Z,17.89
2023-05-14T08:25:33.996Z,18.03
2023-05-14T08:28:03.221Z,18.15
2023-05-14T08:30:31.857Z,18.16
2023-05-14T08:32:59.472Z,18.23
2023-05-14T08:35:39.185Z,18.36
2023-05-14T08:38:08.026Z,18.44
2023-05-14T08:40:42.246Z,18.57
2023-05-14T08:43:09.888Z,18.63
2023-05-14T08:45:37.494Z,18.61
2023-05-14T08:48:05.130Z,18.57
2023-05-14T08:50:32.704Z,18.71
2023-05-14T08:53:00.249Z,18.87
2023-05-14T08:55:30.584Z,18.86
2023-05-14T08:58:03.515Z,19.07
2023-05-14T09:00:33.975Z,18.98
2023-05-14T09:03:03.045Z,18.71
2023-05-14T09:05:31.274Z,18.34
2023-05-14T09:07:58.812Z,18.31
2023-05-14T09:10:26.650Z,18.10
2023-05-14T09:12:54.036Z,17.86
2023-05-14T09:15:23.369Z,17.68
2023-05-14T09:17:52.273Z,17.48
2023-05-14T09:20:20.822Z,17.19
2023-05-14T09:22:49.442Z,17.13
2023-05-14T09:25:18.040Z,17.03
2023-05-14T09:27:46.813Z,17.08
2023-05-14T09:30:14.192Z,17.64
2023-05-14T09:35:25.162Z,17.16
2023-05-14T09:37:52.025Z,17.17
2023-05-14T09:46:14.032Z,17.67
2023-05-14T09:48:41.703Z,17.80
2023-05-14T09:51:12.489Z,17.64
2023-05-14T09:53:40.867Z,17.50
2023-05-14T09:59:01.050Z,17.22
2023-05-14T10:04:33.125Z,17.02
2023-05-14T10:07:20.354Z,16.66
2023-05-14T10:10:00.062Z,16.53
2023-05-14T10:26:03.613Z,16.65
2023-05-14T10:34:39.725Z,16.48
2023-05-14T10:59:13.197Z,15.98
2023-05-14T11:28:56.163Z,16.29
2023-05-14T11:31:31.856Z,16.37
2023-05-14T12:05:25.156Z,18.99
2023-05-14T12:07:54.328Z,18.95
2023-05-14T12:13:27.803Z,19.17
2023-05-14T12:15:57.349Z,19.18
2023-05-14T12:18:32.428Z,19.19
2023-05-14T12:21:01.527Z,19.13
2023-05-14T12:23:30.257Z,19.18
2023-05-14T12:25:59.769Z,19.17
2023-05-14T12:28:28.298Z,19.15
2023-05-14T12:30:57.824Z,19.13
2023-05-14T12:33:26.653Z,19.15
2023-05-14T12:38:42.162Z,19.14
2023-05-14T12:49:33.355Z,19.17
2023-05-14T12:52:19.486Z,19.21
2023-05-14T12:57:27.362Z,19.36
2023-05-14T12:59:55.967Z,19.40
2023-05-14T13:02:25.400Z,19.35
2023-05-14T13:07:39.985Z,19.22
2023-05-14T13:10:09.347Z,19.17
2023-05-14T13:12:36.066Z,19.03
2023-05-14T13:15:07.942Z,18.95
2023-05-14T13:17:35.262Z,18.88
2023-05-14T13:20:06.617Z,18.83
2023-05-14T13:23:53.384Z,18.79
2023-05-14T13:30:58.455Z,18.88
2023-05-14T13:33:27.502Z,18.94
2023-05-14T13:36:47.742Z,18.84
2023-05-14T13:38:46.363Z,19.02
2023-05-14T13:41:13.932Z,19.09
2023-05-14T13:43:43.758Z,19.12
2023-05-14T13:46:14.323Z,19.22
2023-05-14T13:48:42.763Z,19.10
2023-05-14T13:56:21.662Z,19.35
2023-05-14T13:58:50.846Z,19.31
2023-05-14T14:01:18.954Z,19.26
2023-05-14T14:03:46.387Z,19.22
2023-05-14T14:08:04.512Z,19.20
2023-05-14T14:09:15.152Z,19.11
2023-05-14T14:11:42.656Z,19.05
2023-05-14T14:14:11.156Z,18.88
2023-05-14T14:16:39.966Z,18.96
2023-05-14T14:19:11.432Z,18.84
2023-05-14T14:24:34.873Z,18.72
2023-05-14T14:27:03.540Z,18.85
2023-05-14T14:29:32.113Z,18.94
2023-05-14T14:34:49.482Z,18.97
2023-05-14T14:37:21.235Z,18.93
2023-05-14T14:45:10.923Z,19.02
2023-05-14T14:47:40.434Z,19.43
2023-05-14T14:53:13.799Z,19.90
2023-05-14T14:55:42.729Z,19.84
2023-05-14T15:03:58.795Z,19.82
2023-05-14T15:09:22.542Z,19.38
2023-05-14T15:12:04.472Z,19.15
2023-05-14T15:17:49.434Z,18.68
2023-05-14T15:20:16.561Z,18.39
2023-05-14T15:22:49.141Z,18.22
2023-05-14T15:31:07.173Z,17.69
2023-05-14T15:33:39.041Z,17.26
2023-05-14T15:36:16.030Z,16.75
2023-05-14T15:39:18.477Z,16.28
2023-05-14T16:01:42.570Z,17.38
2023-05-14T16:04:12.923Z,17.32
2023-05-14T16:06:47.805Z,17.32
2023-05-14T16:31:32.752Z,21.83
2023-05-14T16:34:04.683Z,22.08
2023-05-14T16:39:22.572Z,22.92
2023-05-14T16:50:13.523Z,23.00
2023-05-14T17:28:52.641Z,17.66
2023-05-14T17:44:12.906Z,15.55
2023-05-14T17:46:41.046Z,15.06
2023-05-14T17:49:08.527Z,14.58
2023-05-14T17:51:37.109Z,14.18
2023-05-14T17:54:06.453Z,13.00
2023-05-14T17:56:35.375Z,11.78
2023-05-14T17:59:02.968Z,11.15
2023-05-14T18:01:31.910Z,11.20
2023-05-14T18:04:00.214Z,11.40
2023-05-14T18:06:27.706Z,11.63
2023-05-14T18:08:55.305Z,11.80
2023-05-14T18:11:22.911Z,11.87
2023-05-14T18:13:49.472Z,11.97
2023-05-14T18:16:16.416Z,12.04
2023-05-14T18:18:43.680Z,12.05
2023-05-14T18:21:11.267Z,12.08
2023-05-14T18:23:39.875Z,12.09
2023-05-14T18:26:07.455Z,12.08
2023-05-14T18:28:35.040Z,12.09
2023-05-14T18:31:03.938Z,12.10
2023-05-14T18:33:32.254Z,12.09
2023-05-14T18:35:59.852Z,12.11
2023-05-14T18:38:27.420Z,12.09
2023-05-14T18:40:55.026Z,12.09
2023-05-14T18:43:22.642Z,12.12
2023-05-14T18:45:52.244Z,12.14
2023-05-14T18:48:22.256Z,12.08
2023-05-14T18:50:50.242Z,12.07
2023-05-14T18:53:23.119Z,12.04
2023-05-14T18:55:50.061Z,12.04
2023-05-14T18:58:19.577Z,11.99
2023-05-14T19:00:47.522Z,11.97
2023-05-14T19:03:15.075Z,12.01
2023-05-14T19:05:42.117Z,11.98
2023-05-14T19:08:10.303Z,11.92
2023-05-14T19:10:36.903Z,11.77
2023-05-14T19:13:04.579Z,11.66
2023-05-14T19:15:33.174Z,11.62
2023-05-14T19:17:59.913Z,11.68
2023-05-14T19:20:27.486Z,11.78
2023-05-14T19:22:55.055Z,11.83
2023-05-14T19:25:22.654Z,11.88
2023-05-14T19:27:49.150Z,11.90
2023-05-14T19:30:17.838Z,11.93
2023-05-14T19:32:46.522Z,11.93
2023-05-14T19:35:14.039Z,11.94
2023-05-14T19:37:42.620Z,11.84
2023-05-14T19:40:09.270Z,11.86
2023-05-14T19:42:36.877Z,11.82
2023-05-14T19:45:04.481Z,11.82
2023-05-14T19:47:32.220Z,11.86
2023-05-14T19:49:59.818Z,11.87
2023-05-14T19:52:26.698Z,11.85
2023-05-14T19:54:55.512Z,11.85
2023-05-14T19:57:22.598Z,11.82
2023-05-14T19:59:50.232Z,11.81
2023-05-14T20:02:17.168Z,11.80
2023-05-14T20:04:44.397Z,11.78
2023-05-14T20:07:12.002Z,11.75
2023-05-14T20:09:39.600Z,11.72
2023-05-14T20:12:07.198Z,11.69
2023-05-14T20:14:34.791Z,11.64
2023-05-14T20:17:02.438Z,11.60
2023-05-14T20:19:29.980Z,11.57
2023-05-14T20:21:58.543Z,11.49
2023-05-14T20:24:25.026Z,11.44
2023-05-14T20:26:52.751Z,11.46
2023-05-14T20:29:20.360Z,11.50
2023-05-14T20:31:46.907Z,11.33
2023-05-14T20:34:15.560Z,11.20
2023-05-14T20:36:43.144Z,11.22
2023-05-14T20:39:10.735Z,11.22
2023-05-14T20:41:37.179Z,11.24
2023-05-14T20:44:03.875Z,11.28
2023-05-14T20:46:31.602Z,11.32
2023-05-14T20:48:59.131Z,11.32
2023-05-14T20:51:26.713Z,11.24
2023-05-14T20:53:53.607Z,11.26
2023-05-14T20:56:20.921Z,11.27
2023-05-14T20:58:48.507Z,11.30
2023-05-14T21:01:17.110Z,11.29
2023-05-14T21:03:44.807Z,11.28
2023-05-14T21:06:12.348Z,11.22
2023-05-14T21:08:40.092Z,11.26
2023-05-14T21:11:07.529Z,11.29
2023-05-14T21:13:35.168Z,11.34
2023-05-14T21:16:02.769Z,11.33
2023-05-14T21:18:31.358Z,11.27
2023-05-14T21:20:57.879Z,11.31
2023-05-14T21:23:24.581Z,11.35
2023-05-14T21:25:54.043Z,11.41
2023-05-14T21:28:20.774Z,11.47
2023-05-14T21:30:48.344Z,11.47
2023-05-14T21:33:15.959Z,11.46
2023-05-14T21:35:44.536Z,11.41
2023-05-14T21:38:12.137Z,11.40
2023-05-14T21:40:39.807Z,11.42
2023-05-14T21:43:08.455Z,11.39
2023-05-14T21:45:35.961Z,11.45
2023-05-14T21:48:02.955Z,11.36
2023-05-14T21:50:30.176Z,11.32
2023-05-14T21:52:57.819Z,11.38
2023-05-14T21:55:25.816Z,11.39
2023-05-14T21:57:52.969Z,11.45
2023-05-14T22:00:20.598Z,11.44
2023-05-14T22:02:48.227Z,11.38
2023-05-14T22:05:15.821Z,11.34
2023-05-14T22:07:43.360Z,11.38
2023-05-14T22:10:11.944Z,11.40
2023-05-14T22:12:39.540Z,11.38
2023-05-14T22:15:07.166Z,11.40
2023-05-14T22:17:34.745Z,11.39
2023-05-14T22:20:02.352Z,11.38
2023-05-14T22:22:29.913Z,11.37
2023-05-14T22:24:58.500Z,11.37
2023-05-14T22:27:26.093Z,11.37
2023-05-14T22:29:53.704Z,11.44
2023-05-14T22:32:22.692Z,11.47
2023-05-14T22:34:49.892Z,11.52
2023-05-14T22:37:16.472Z,11.54
2023-05-14T22:39:44.067Z,11.53
2023-05-14T22:42:11.672Z,11.50
2023-05-14T22:44:38.496Z,11.29
2023-05-14T22:47:07.249Z,11.15
2023-05-14T22:49:35.433Z,11.02
2023-05-14T22:52:04.600Z,10.95
2023-05-14T22:54:31.697Z,10.92
2023-05-14T22:57:00.892Z,10.96
2023-05-14T22:59:28.903Z,10.97
2023-05-14T23:01:56.598Z,11.03
2023-05-14T23:04:24.172Z,11.12
2023-05-14T23:06:51.712Z,11.24
2023-05-14T23:09:19.330Z,11.29
2023-05-14T23:11:46.939Z,11.34
2023-05-14T23:14:14.502Z,11.38
2023-05-14T23:16:42.086Z,11.40
2023-05-14T23:19:11.809Z,11.42
2023-05-14T23:21:42.283Z,11.44
2023-05-14T23:24:09.880Z,11.44
2023-05-14T23:26:37.496Z,11.39
2023-05-14T23:29:05.070Z,11.33
2023-05-14T23:31:32.715Z,11.35
2023-05-14T23:34:00.239Z,11.38
2023-05-14T23:36:27.826Z,11.43
2023-05-14T23:38:54.430Z,11.46
2023-05-14T23:41:22.013Z,11.49
2023-05-14T23:43:49.607Z,11.52
2023-05-14T23:46:17.196Z,11.48
2023-05-14T23:48:45.794Z,11.43
2023-05-14T23:51:13.406Z,11.47
2023-05-14T23:53:40.999Z,11.34
2023-05-14T23:56:08.591Z,11.27
2023-05-14T23:58:37.336Z,11.23
